sensor_id;sensor_type;location;lat;lon;timestamp;P1;durP1;ratioP1;P2;durP2;ratioP2
44456;SDS011;30159;49.316;8.558;2024-03-23T00:52:37;5.30;;;4.83;;
44456;SDS011;30159;49.316;8.558;2024-03-23T00:55:04;5.43;;;4.80;;
44456;SDS011;30159;49.316;8.558;2024-03-23T00:57:29;4.67;;;4.27;;
44456;SDS011;30159;49.316;8.558;2024-03-23T00:59:56;4.47;;;4.07;;
44456;SDS011;30159;49.316;8.558;2024-03-23T01:02:22;10.73;;;4.80;;
44456;SDS011;30159;49.316;8.558;2024-03-23T01:04:48;5.53;;;5.03;;
44456;SDS011;30159;49.316;8.558;2024-03-23T01:07:14;5.03;;;4.63;;
44456;SDS011;30159;49.316;8.558;2024-03-23T01:09:42;6.33;;;5.30;;
44456;SDS011;30159;49.316;8.558;2024-03-23T01:12:08;5.87;;;5.10;;
44456;SDS011;30159;49.316;8.558;2024-03-23T01:14:34;5.30;;;4.80;;
44456;SDS011;30159;49.316;8.558;2024-03-23T01:17:01;5.27;;;4.40;;
44456;SDS011;30159;49.316;8.558;2024-03-23T01:19:27;5.00;;;4.60;;
44456;SDS011;30159;49.316;8.558;2024-03-23T01:21:53;5.47;;;4.60;;
44456;SDS011;30159;49.316;8.558;2024-03-23T01:24:19;6.33;;;5.37;;
44456;SDS011;30159;49.316;8.558;2024-03-23T01:26:47;4.33;;;3.97;;
44456;SDS011;30159;49.316;8.558;2024-03-23T01:29:13;6.17;;;4.63;;
44456;SDS011;30159;49.316;8.558;2024-03-23T01:31:39;6.17;;;4.87;;
44456;SDS011;30159;49.316;8.558;2024-03-23T01:34:06;5.37;;;4.47;;
44456;SDS011;30159;49.316;8.558;2024-03-23T01:36:31;5.40;;;4.40;;
44456;SDS011;30159;49.316;8.558;2024-03-23T01:38:58;8.63;;;5.20;;
44456;SDS011;30159;49.316;8.558;2024-03-23T01:41:24;4.70;;;4.30;;
44456;SDS011;30159;49.316;8.558;2024-03-23T01:43:52;4.80;;;4.20;;
44456;SDS011;30159;49.316;8.558;2024-03-23T01:46:20;4.20;;;3.80;;
44456;SDS011;30159;49.316;8.558;2024-03-23T01:48:46;4.03;;;3.73;;
44456;SDS011;30159;49.316;8.558;2024-03-23T01:51:12;6.03;;;4.20;;
44456;SDS011;30159;49.316;8.558;2024-03-23T01:53:39;4.73;;;3.87;;
44456;SDS011;30159;49.316;8.558;2024-03-23T01:56:05;3.83;;;3.53;;
44456;SDS011;30159;49.316;8.558;2024-03-23T01:58:32;4.07;;;3.67;;
44456;SDS011;30159;49.316;8.558;2024-03-23T02:00:59;4.57;;;3.60;;
44456;SDS011;30159;49.316;8.558;2024-03-23T02:03:26;4.40;;;4.00;;
44456;SDS011;30159;49.316;8.558;2024-03-23T02:05:52;4.23;;;3.90;;
44456;SDS011;30159;49.316;8.558;2024-03-23T02:08:20;2.87;;;2.67;;
44456;SDS011;30159;49.316;8.558;2024-03-23T02:10:47;4.47;;;3.50;;
44456;SDS011;30159;49.316;8.558;2024-03-23T02:13:14;4.10;;;3.70;;
44456;SDS011;30159;49.316;8.558;2024-03-23T02:15:39;4.40;;;3.70;;
44456;SDS011;30159;49.316;8.558;2024-03-23T02:18:08;3.53;;;3.23;;
44456;SDS011;30159;49.316;8.558;2024-03-23T02:20:34;4.67;;;3.60;;
44456;SDS011;30159;49.316;8.558;2024-03-23T02:23:02;4.00;;;3.70;;
44456;SDS011;30159;49.316;8.558;2024-03-23T02:25:27;4.20;;;3.90;;
44456;SDS011;30159;49.316;8.558;2024-03-23T02:27:54;4.30;;;3.33;;
44456;SDS011;30159;49.316;8.558;2024-03-23T02:30:20;3.20;;;3.00;;
44456;SDS011;30159;49.316;8.558;2024-03-23T02:32:47;3.60;;;3.37;;
44456;SDS011;30159;49.316;8.558;2024-03-23T02:35:12;3.90;;;3.50;;
44456;SDS011;30159;49.316;8.558;2024-03-23T02:37:39;3.13;;;2.73;;
44456;SDS011;30159;49.316;8.558;2024-03-23T02:40:06;5.43;;;3.00;;
44456;SDS011;30159;49.316;8.558;2024-03-23T02:42:34;4.30;;;2.97;;
44456;SDS011;30159;49.316;8.558;2024-03-23T02:44:59;4.77;;;3.40;;
44456;SDS011;30159;49.316;8.558;2024-03-23T02:47:26;4.00;;;3.10;;
44456;SDS011;30159;49.316;8.558;2024-03-23T02:49:52;4.40;;;3.43;;
44456;SDS011;30159;49.316;8.558;2024-03-23T02:52:19;3.83;;;3.50;;
44456;SDS011;30159;49.316;8.558;2024-03-23T02:54:45;4.17;;;3.80;;
44456;SDS011;30159;49.316;8.558;2024-03-23T02:57:12;4.00;;;3.50;;
44456;SDS011;30159;49.316;8.558;2024-03-23T02:59:38;4.30;;;3.70;;
44456;SDS011;30159;49.316;8.558;2024-03-23T03:02:05;4.60;;;3.87;;
44456;SDS011;30159;49.316;8.558;2024-03-23T03:04:30;4.00;;;3.10;;
44456;SDS011;30159;49.316;8.558;2024-03-23T03:06:57;5.53;;;4.17;;
44456;SDS011;30159;49.316;8.558;2024-03-23T03:09:23;4.70;;;3.40;;
44456;SDS011;30159;49.316;8.558;2024-03-23T03:11:50;4.23;;;3.50;;
44456;SDS011;30159;49.316;8.558;2024-03-23T03:14:17;6.67;;;4.17;;
44456;SDS011;30159;49.316;8.558;2024-03-23T03:16:43;4.80;;;4.03;;
44456;SDS011;30159;49.316;8.558;2024-03-23T03:19:11;3.30;;;3.00;;
44456;SDS011;30159;49.316;8.558;2024-03-23T03:21:38;7.33;;;3.67;;
44456;SDS011;30159;49.316;8.558;2024-03-23T03:24:05;5.60;;;4.20;;
44456;SDS011;30159;49.316;8.558;2024-03-23T03:26:32;3.93;;;3.60;;
44456;SDS011;30159;49.316;8.558;2024-03-23T03:28:58;7.60;;;4.70;;
44456;SDS011;30159;49.316;8.558;2024-03-23T03:31:26;6.83;;;4.17;;
44456;SDS011;30159;49.316;8.558;2024-03-23T03:33:52;4.43;;;4.03;;
44456;SDS011;30159;49.316;8.558;2024-03-23T03:36:18;5.53;;;3.87;;
44456;SDS011;30159;49.316;8.558;2024-03-23T03:38:44;4.30;;;3.53;;
44456;SDS011;30159;49.316;8.558;2024-03-23T03:41:11;4.60;;;3.40;;
44456;SDS011;30159;49.316;8.558;2024-03-23T03:43:36;10.00;;;4.10;;
44456;SDS011;30159;49.316;8.558;2024-03-23T03:46:03;5.07;;;4.33;;
44456;SDS011;30159;49.316;8.558;2024-03-23T03:48:30;7.23;;;5.20;;
44456;SDS011;30159;49.316;8.558;2024-03-23T03:50:57;4.83;;;4.30;;
44456;SDS011;30159;49.316;8.558;2024-03-23T03:53:22;6.27;;;3.53;;
44456;SDS011;30159;49.316;8.558;2024-03-23T03:55:49;8.67;;;4.70;;
44456;SDS011;30159;49.316;8.558;2024-03-23T03:58:14;6.13;;;4.83;;
44456;SDS011;30159;49.316;8.558;2024-03-23T04:00:41;8.50;;;4.47;;
44456;SDS011;30159;49.316;8.558;2024-03-23T04:03:07;6.57;;;3.13;;
44456;SDS011;30159;49.316;8.558;2024-03-23T04:05:35;6.13;;;4.00;;
44456;SDS011;30159;49.316;8.558;2024-03-23T04:08:00;8.93;;;4.43;;
44456;SDS011;30159;49.316;8.558;2024-03-23T04:10:27;6.60;;;4.90;;
44456;SDS011;30159;49.316;8.558;2024-03-23T04:12:53;7.63;;;5.00;;
44456;SDS011;30159;49.316;8.558;2024-03-23T04:15:20;5.53;;;4.13;;
44456;SDS011;30159;49.316;8.558;2024-03-23T04:17:45;7.90;;;5.07;;
44456;SDS011;30159;49.316;8.558;2024-03-23T04:20:12;7.53;;;4.50;;
44456;SDS011;30159;49.316;8.558;2024-03-23T04:22:43;6.73;;;4.17;;
44456;SDS011;30159;49.316;8.558;2024-03-23T04:25:09;6.47;;;4.73;;
44456;SDS011;30159;49.316;8.558;2024-03-23T04:27:35;4.70;;;3.47;;
44456;SDS011;30159;49.316;8.558;2024-03-23T04:30:02;5.30;;;3.37;;
44456;SDS011;30159;49.316;8.558;2024-03-23T04:32:31;7.23;;;3.97;;
44456;SDS011;30159;49.316;8.558;2024-03-23T04:34:57;5.70;;;3.67;;
44456;SDS011;30159;49.316;8.558;2024-03-23T04:37:23;5.33;;;4.23;;
44456;SDS011;30159;49.316;8.558;2024-03-23T04:39:51;7.50;;;4.10;;
44456;SDS011;30159;49.316;8.558;2024-03-23T04:42:17;6.50;;;3.43;;
44456;SDS011;30159;49.316;8.558;2024-03-23T04:44:44;3.90;;;3.30;;
44456;SDS011;30159;49.316;8.558;2024-03-23T04:47:11;5.27;;;3.40;;
44456;SDS011;30159;49.316;8.558;2024-03-23T04:49:37;3.77;;;3.00;;
44456;SDS011;30159;49.316;8.558;2024-03-23T04:52:04;3.60;;;2.87;;
44456;SDS011;30159;49.316;8.558;2024-03-23T04:54:31;4.40;;;3.03;;
44456;SDS011;30159;49.316;8.558;2024-03-23T04:57:00;2.90;;;2.60;;
44456;SDS011;30159;49.316;8.558;2024-03-23T04:59:25;4.77;;;2.70;;
44456;SDS011;30159;49.316;8.558;2024-03-23T05:01:52;2.87;;;2.63;;
44456;SDS011;30159;49.316;8.558;2024-03-23T05:04:17;5.10;;;2.93;;
44456;SDS011;30159;49.316;8.558;2024-03-23T05:06:44;4.93;;;3.20;;
44456;SDS011;30159;49.316;8.558;2024-03-23T05:09:10;2.10;;;1.80;;
44456;SDS011;30159;49.316;8.558;2024-03-23T05:11:36;3.53;;;2.77;;
44456;SDS011;30159;49.316;8.558;2024-03-23T05:14:03;2.47;;;2.10;;
44456;SDS011;30159;49.316;8.558;2024-03-23T05:16:30;5.60;;;2.20;;
44456;SDS011;30159;49.316;8.558;2024-03-23T05:18:56;3.00;;;1.40;;
44456;SDS011;30159;49.316;8.558;2024-03-23T05:21:22;1.50;;;1.37;;
44456;SDS011;30159;49.316;8.558;2024-03-23T05:23:48;1.47;;;1.23;;
44456;SDS011;30159;49.316;8.558;2024-03-23T05:26:14;1.20;;;1.03;;
44456;SDS011;30159;49.316;8.558;2024-03-23T05:28:40;1.00;;;0.80;;
44456;SDS011;30159;49.316;8.558;2024-03-23T05:31:08;2.60;;;1.00;;
44456;SDS011;30159;49.316;8.558;2024-03-23T05:33:34;2.17;;;1.00;;
44456;SDS011;30159;49.316;8.558;2024-03-23T05:36:03;0.90;;;0.70;;
44456;SDS011;30159;49.316;8.558;2024-03-23T05:38:29;1.40;;;1.10;;
44456;SDS011;30159;49.316;8.558;2024-03-23T05:40:56;1.00;;;0.90;;
44456;SDS011;30159;49.316;8.558;2024-03-23T05:43:22;0.93;;;0.80;;
44456;SDS011;30159;49.316;8.558;2024-03-23T05:45:53;1.00;;;0.90;;
44456;SDS011;30159;49.316;8.558;2024-03-23T05:48:26;1.20;;;1.00;;
44456;SDS011;30159;49.316;8.558;2024-03-23T05:50:55;1.57;;;0.90;;
44456;SDS011;30159;49.316;8.558;2024-03-23T05:53:23;1.30;;;0.80;;
44456;SDS011;30159;49.316;8.558;2024-03-23T05:55:51;1.10;;;0.70;;
44456;SDS011;30159;49.316;8.558;2024-03-23T05:58:19;1.03;;;0.53;;
44456;SDS011;30159;49.316;8.558;2024-03-23T06:00:46;0.77;;;0.60;;
44456;SDS011;30159;49.316;8.558;2024-03-23T06:03:11;0.90;;;0.70;;
44456;SDS011;30159;49.316;8.558;2024-03-23T06:05:40;1.43;;;1.23;;
44456;SDS011;30159;49.316;8.558;2024-03-23T06:08:07;0.70;;;0.50;;
44456;SDS011;30159;49.316;8.558;2024-03-23T06:10:35;0.73;;;0.50;;
44456;SDS011;30159;49.316;8.558;2024-03-23T06:13:00;1.03;;;0.70;;
44456;SDS011;30159;49.316;8.558;2024-03-23T06:15:27;0.80;;;0.70;;
44456;SDS011;30159;49.316;8.558;2024-03-23T06:17:53;0.90;;;0.40;;
44456;SDS011;30159;49.316;8.558;2024-03-23T06:20:20;0.60;;;0.40;;
44456;SDS011;30159;49.316;8.558;2024-03-23T06:22:48;0.60;;;0.50;;
44456;SDS011;30159;49.316;8.558;2024-03-23T06:25:14;0.80;;;0.50;;
44456;SDS011;30159;49.316;8.558;2024-03-23T06:27:40;0.80;;;0.60;;
44456;SDS011;30159;49.316;8.558;2024-03-23T06:30:07;0.83;;;0.50;;
44456;SDS011;30159;49.316;8.558;2024-03-23T06:32:34;0.60;;;0.40;;
44456;SDS011;30159;49.316;8.558;2024-03-23T06:35:00;0.60;;;0.40;;
44456;SDS011;30159;49.316;8.558;2024-03-23T06:37:34;0.80;;;0.60;;
44456;SDS011;30159;49.316;8.558;2024-03-23T06:40:01;0.50;;;0.40;;
44456;SDS011;30159;49.316;8.558;2024-03-23T06:42:29;0.60;;;0.43;;
44456;SDS011;30159;49.316;8.558;2024-03-23T06:44:55;0.80;;;0.50;;
44456;SDS011;30159;49.316;8.558;2024-03-23T06:47:22;0.60;;;0.40;;
44456;SDS011;30159;49.316;8.558;2024-03-23T06:49:47;1.30;;;0.40;;
44456;SDS011;30159;49.316;8.558;2024-03-23T06:52:14;0.60;;;0.40;;
44456;SDS011;30159;49.316;8.558;2024-03-23T06:54:39;0.53;;;0.37;;
44456;SDS011;30159;49.316;8.558;2024-03-23T06:57:07;0.57;;;0.40;;
44456;SDS011;30159;49.316;8.558;2024-03-23T06:59:33;0.50;;;0.30;;
44456;SDS011;30159;49.316;8.558;2024-03-23T07:02:00;0.50;;;0.33;;
44456;SDS011;30159;49.316;8.558;2024-03-23T07:04:25;0.50;;;0.30;;
44456;SDS011;30159;49.316;8.558;2024-03-23T07:06:52;0.57;;;0.40;;
44456;SDS011;30159;49.316;8.558;2024-03-23T07:09:17;0.60;;;0.40;;
44456;SDS011;30159;49.316;8.558;2024-03-23T07:11:44;0.73;;;0.40;;
44456;SDS011;30159;49.316;8.558;2024-03-23T07:14:12;0.50;;;0.30;;
44456;SDS011;30159;49.316;8.558;2024-03-23T07:16:39;1.37;;;0.40;;
44456;SDS011;30159;49.316;8.558;2024-03-23T07:19:04;0.70;;;0.40;;
44456;SDS011;30159;49.316;8.558;2024-03-23T07:21:31;0.50;;;0.30;;
44456;SDS011;30159;49.316;8.558;2024-03-23T07:23:57;0.50;;;0.30;;
44456;SDS011;30159;49.316;8.558;2024-03-23T07:26:23;0.50;;;0.30;;
44456;SDS011;30159;49.316;8.558;2024-03-23T07:28:49;0.47;;;0.30;;
44456;SDS011;30159;49.316;8.558;2024-03-23T07:31:17;4.53;;;0.40;;
44456;SDS011;30159;49.316;8.558;2024-03-23T07:33:43;0.50;;;0.30;;
44456;SDS011;30159;49.316;8.558;2024-03-23T07:36:12;0.50;;;0.40;;
44456;SDS011;30159;49.316;8.558;2024-03-23T07:38:40;0.60;;;0.50;;
44456;SDS011;30159;49.316;8.558;2024-03-23T07:41:07;0.50;;;0.40;;
44456;SDS011;30159;49.316;8.558;2024-03-23T07:43:34;0.63;;;0.47;;
44456;SDS011;30159;49.316;8.558;2024-03-23T07:46:01;0.63;;;0.40;;
44456;SDS011;30159;49.316;8.558;2024-03-23T07:48:30;0.60;;;0.50;;
44456;SDS011;30159;49.316;8.558;2024-03-23T07:51:00;0.77;;;0.60;;
44456;SDS011;30159;49.316;8.558;2024-03-23T07:53:27;0.70;;;0.40;;
44456;SDS011;30159;49.316;8.558;2024-03-23T07:55:54;0.70;;;0.43;;
44456;SDS011;30159;49.316;8.558;2024-03-23T07:58:20;3.83;;;0.50;;
44456;SDS011;30159;49.316;8.558;2024-03-23T08:00:47;0.60;;;0.40;;
44456;SDS011;30159;49.316;8.558;2024-03-23T08:03:13;0.60;;;0.40;;
44456;SDS011;30159;49.316;8.558;2024-03-23T08:05:40;0.80;;;0.50;;
44456;SDS011;30159;49.316;8.558;2024-03-23T08:08:07;1.13;;;0.50;;
44456;SDS011;30159;49.316;8.558;2024-03-23T08:10:33;0.70;;;0.60;;
44456;SDS011;30159;49.316;8.558;2024-03-23T08:12:59;2.40;;;0.70;;
44456;SDS011;30159;49.316;8.558;2024-03-23T08:15:25;0.80;;;0.57;;
44456;SDS011;30159;49.316;8.558;2024-03-23T08:17:52;3.20;;;0.60;;
44456;SDS011;30159;49.316;8.558;2024-03-23T08:20:17;0.83;;;0.50;;
44456;SDS011;30159;49.316;8.558;2024-03-23T08:22:45;1.93;;;0.60;;
44456;SDS011;30159;49.316;8.558;2024-03-23T08:25:11;0.60;;;0.50;;
44456;SDS011;30159;49.316;8.558;2024-03-23T08:27:38;0.70;;;0.60;;
44456;SDS011;30159;49.316;8.558;2024-03-23T08:30:04;1.43;;;0.53;;
44456;SDS011;30159;49.316;8.558;2024-03-23T08:32:32;0.87;;;0.60;;
44456;SDS011;30159;49.316;8.558;2024-03-23T08:34:58;6.23;;;0.90;;
44456;SDS011;30159;49.316;8.558;2024-03-23T08:37:24;1.73;;;0.80;;
44456;SDS011;30159;49.316;8.558;2024-03-23T08:39:52;4.00;;;0.90;;
44456;SDS011;30159;49.316;8.558;2024-03-23T08:42:19;0.80;;;0.70;;
44456;SDS011;30159;49.316;8.558;2024-03-23T08:44:44;0.90;;;0.80;;
44456;SDS011;30159;49.316;8.558;2024-03-23T08:47:14;2.00;;;1.00;;
44456;SDS011;30159;49.316;8.558;2024-03-23T08:49:40;0.87;;;0.80;;
44456;SDS011;30159;49.316;8.558;2024-03-23T08:52:06;1.03;;;0.70;;
44456;SDS011;30159;49.316;8.558;2024-03-23T08:54:32;0.80;;;0.70;;
44456;SDS011;30159;49.316;8.558;2024-03-23T08:57:00;1.33;;;0.90;;
44456;SDS011;30159;49.316;8.558;2024-03-23T08:59:26;0.90;;;0.70;;
44456;SDS011;30159;49.316;8.558;2024-03-23T09:01:53;0.80;;;0.70;;
44456;SDS011;30159;49.316;8.558;2024-03-23T09:04:19;0.93;;;0.60;;
44456;SDS011;30159;49.316;8.558;2024-03-23T09:06:46;1.20;;;0.77;;
44456;SDS011;30159;49.316;8.558;2024-03-23T09:09:12;2.53;;;0.70;;
44456;SDS011;30159;49.316;8.558;2024-03-23T09:11:39;0.60;;;0.60;;
44456;SDS011;30159;49.316;8.558;2024-03-23T09:14:06;1.90;;;1.00;;
44456;SDS011;30159;49.316;8.558;2024-03-23T09:16:32;0.83;;;0.60;;
44456;SDS011;30159;49.316;8.558;2024-03-23T09:18:58;0.80;;;0.63;;
44456;SDS011;30159;49.316;8.558;2024-03-23T09:21:24;0.80;;;0.70;;
44456;SDS011;30159;49.316;8.558;2024-03-23T09:23:50;1.83;;;0.90;;
44456;SDS011;30159;49.316;8.558;2024-03-23T09:26:17;1.33;;;1.00;;
44456;SDS011;30159;49.316;8.558;2024-03-23T09:28:42;1.30;;;1.13;;
44456;SDS011;30159;49.316;8.558;2024-03-23T09:31:11;1.20;;;0.97;;
44456;SDS011;30159;49.316;8.558;2024-03-23T09:33:39;1.07;;;0.97;;
44456;SDS011;30159;49.316;8.558;2024-03-23T09:36:06;3.57;;;1.63;;
44456;SDS011;30159;49.316;8.558;2024-03-23T09:38:32;1.47;;;1.10;;
44456;SDS011;30159;49.316;8.558;2024-03-23T09:40:59;1.10;;;0.93;;
44456;SDS011;30159;49.316;8.558;2024-03-23T09:43:25;4.77;;;1.33;;
44456;SDS011;30159;49.316;8.558;2024-03-23T09:45:52;1.70;;;1.00;;
44456;SDS011;30159;49.316;8.558;2024-03-23T09:48:19;1.20;;;0.90;;
44456;SDS011;30159;49.316;8.558;2024-03-23T09:50:46;4.27;;;1.10;;
44456;SDS011;30159;49.316;8.558;2024-03-23T09:53:14;2.60;;;1.30;;
44456;SDS011;30159;49.316;8.558;2024-03-23T09:55:41;3.53;;;2.10;;
44456;SDS011;30159;49.316;8.558;2024-03-23T09:58:08;1.10;;;1.00;;
44456;SDS011;30159;49.316;8.558;2024-03-23T10:00:38;1.70;;;1.27;;
44456;SDS011;30159;49.316;8.558;2024-03-23T10:03:04;1.93;;;1.03;;
44456;SDS011;30159;49.316;8.558;2024-03-23T10:05:33;1.50;;;1.13;;
44456;SDS011;30159;49.316;8.558;2024-03-23T10:08:00;1.23;;;0.93;;
44456;SDS011;30159;49.316;8.558;2024-03-23T10:10:26;1.50;;;1.00;;
44456;SDS011;30159;49.316;8.558;2024-03-23T10:12:52;1.13;;;0.97;;
44456;SDS011;30159;49.316;8.558;2024-03-23T10:15:19;3.10;;;1.10;;
44456;SDS011;30159;49.316;8.558;2024-03-23T10:17:45;1.13;;;0.93;;
44456;SDS011;30159;49.316;8.558;2024-03-23T10:20:12;1.40;;;1.10;;
44456;SDS011;30159;49.316;8.558;2024-03-23T10:22:45;1.57;;;0.90;;
44456;SDS011;30159;49.316;8.558;2024-03-23T10:25:12;1.80;;;1.00;;
44456;SDS011;30159;49.316;8.558;2024-03-23T10:27:41;1.20;;;0.93;;
44456;SDS011;30159;49.316;8.558;2024-03-23T10:30:09;2.30;;;1.20;;
44456;SDS011;30159;49.316;8.558;2024-03-23T10:32:36;2.80;;;1.50;;
44456;SDS011;30159;49.316;8.558;2024-03-23T10:35:16;5.30;;;1.80;;
44456;SDS011;30159;49.316;8.558;2024-03-23T10:37:44;4.40;;;1.20;;
44456;SDS011;30159;49.316;8.558;2024-03-23T10:40:12;1.23;;;1.03;;
44456;SDS011;30159;49.316;8.558;2024-03-23T10:42:38;1.90;;;1.03;;
44456;SDS011;30159;49.316;8.558;2024-03-23T10:45:06;2.53;;;1.20;;
44456;SDS011;30159;49.316;8.558;2024-03-23T10:47:34;1.73;;;1.20;;
44456;SDS011;30159;49.316;8.558;2024-03-23T10:50:01;1.10;;;1.00;;
44456;SDS011;30159;49.316;8.558;2024-03-23T10:52:28;1.30;;;0.90;;
44456;SDS011;30159;49.316;8.558;2024-03-23T10:54:56;1.87;;;0.97;;
44456;SDS011;30159;49.316;8.558;2024-03-23T10:57:26;2.60;;;0.90;;
44456;SDS011;30159;49.316;8.558;2024-03-23T10:59:56;4.60;;;0.90;;
44456;SDS011;30159;49.316;8.558;2024-03-23T11:02:22;1.23;;;0.90;;
44456;SDS011;30159;49.316;8.558;2024-03-23T11:04:51;1.57;;;0.80;;
44456;SDS011;30159;49.316;8.558;2024-03-23T11:07:28;2.13;;;0.70;;
44456;SDS011;30159;49.316;8.558;2024-03-23T11:09:57;2.07;;;1.63;;
44456;SDS011;30159;49.316;8.558;2024-03-23T11:12:26;2.47;;;0.90;;
44456;SDS011;30159;49.316;8.558;2024-03-23T11:14:57;1.27;;;0.90;;
44456;SDS011;30159;49.316;8.558;2024-03-23T11:17:25;1.70;;;1.60;;
44456;SDS011;30159;49.316;8.558;2024-03-23T11:19:55;2.00;;;0.80;;
44456;SDS011;30159;49.316;8.558;2024-03-23T11:22:37;1.10;;;0.80;;
44456;SDS011;30159;49.316;8.558;2024-03-23T11:25:13;1.10;;;0.70;;
44456;SDS011;30159;49.316;8.558;2024-03-23T11:27:39;1.63;;;0.80;;
44456;SDS011;30159;49.316;8.558;2024-03-23T11:30:10;1.77;;;0.80;;
44456;SDS011;30159;49.316;8.558;2024-03-23T11:32:40;2.30;;;1.17;;
44456;SDS011;30159;49.316;8.558;2024-03-23T11:35:08;1.20;;;1.10;;
44456;SDS011;30159;49.316;8.558;2024-03-23T11:37:35;1.03;;;0.87;;
44456;SDS011;30159;49.316;8.558;2024-03-23T11:42:54;0.90;;;0.80;;
44456;SDS011;30159;49.316;8.558;2024-03-23T11:45:22;0.77;;;0.70;;
44456;SDS011;30159;49.316;8.558;2024-03-23T11:47:47;0.80;;;0.73;;
44456;SDS011;30159;49.316;8.558;2024-03-23T11:50:19;1.43;;;0.93;;
44456;SDS011;30159;49.316;8.558;2024-03-23T11:52:45;1.13;;;0.90;;
44456;SDS011;30159;49.316;8.558;2024-03-23T11:55:11;7.13;;;1.00;;
44456;SDS011;30159;49.316;8.558;2024-03-23T11:57:39;1.10;;;1.00;;
44456;SDS011;30159;49.316;8.558;2024-03-23T12:00:19;1.00;;;0.90;;
44456;SDS011;30159;49.316;8.558;2024-03-23T12:02:47;1.20;;;1.00;;
44456;SDS011;30159;49.316;8.558;2024-03-23T12:05:15;1.83;;;0.83;;
44456;SDS011;30159;49.316;8.558;2024-03-23T12:07:42;2.37;;;1.10;;
44456;SDS011;30159;49.316;8.558;2024-03-23T12:10:08;2.03;;;0.93;;
44456;SDS011;30159;49.316;8.558;2024-03-23T12:12:35;0.77;;;0.70;;
44456;SDS011;30159;49.316;8.558;2024-03-23T12:15:02;0.97;;;0.90;;
44456;SDS011;30159;49.316;8.558;2024-03-23T12:17:30;2.17;;;0.53;;
44456;SDS011;30159;49.316;8.558;2024-03-23T12:19:56;0.90;;;0.70;;
44456;SDS011;30159;49.316;8.558;2024-03-23T12:22:23;1.00;;;0.70;;
44456;SDS011;30159;49.316;8.558;2024-03-23T12:24:49;2.80;;;0.83;;
44456;SDS011;30159;49.316;8.558;2024-03-23T12:27:16;0.70;;;0.70;;
44456;SDS011;30159;49.316;8.558;2024-03-23T12:29:42;0.93;;;0.93;;
44456;SDS011;30159;49.316;8.558;2024-03-23T12:32:12;0.80;;;0.70;;
44456;SDS011;30159;49.316;8.558;2024-03-23T12:34:39;0.60;;;0.60;;
44456;SDS011;30159;49.316;8.558;2024-03-23T12:37:07;2.30;;;0.80;;
44456;SDS011;30159;49.316;8.558;2024-03-23T12:39:33;2.23;;;0.90;;
44456;SDS011;30159;49.316;8.558;2024-03-23T12:42:00;2.90;;;0.90;;
44456;SDS011;30159;49.316;8.558;2024-03-23T12:44:27;1.10;;;1.00;;
44456;SDS011;30159;49.316;8.558;2024-03-23T12:46:54;1.00;;;0.80;;
44456;SDS011;30159;49.316;8.558;2024-03-23T12:49:21;1.13;;;0.90;;
44456;SDS011;30159;49.316;8.558;2024-03-23T12:51:49;0.97;;;0.87;;
44456;SDS011;30159;49.316;8.558;2024-03-23T12:54:19;0.87;;;0.87;;
44456;SDS011;30159;49.316;8.558;2024-03-23T12:56:46;0.97;;;0.87;;
44456;SDS011;30159;49.316;8.558;2024-03-23T12:59:12;1.27;;;0.70;;
44456;SDS011;30159;49.316;8.558;2024-03-23T13:01:39;0.80;;;0.70;;
44456;SDS011;30159;49.316;8.558;2024-03-23T13:04:04;1.90;;;0.80;;
44456;SDS011;30159;49.316;8.558;2024-03-23T13:06:33;0.60;;;0.50;;
44456;SDS011;30159;49.316;8.558;2024-03-23T13:08:59;0.50;;;0.30;;
44456;SDS011;30159;49.316;8.558;2024-03-23T13:11:26;0.60;;;0.40;;
44456;SDS011;30159;49.316;8.558;2024-03-23T13:13:52;0.60;;;0.40;;
44456;SDS011;30159;49.316;8.558;2024-03-23T13:16:19;0.50;;;0.40;;
44456;SDS011;30159;49.316;8.558;2024-03-23T13:18:44;0.50;;;0.33;;
44456;SDS011;30159;49.316;8.558;2024-03-23T13:21:11;0.70;;;0.40;;
44456;SDS011;30159;49.316;8.558;2024-03-23T13:23:38;0.73;;;0.40;;
44456;SDS011;30159;49.316;8.558;2024-03-23T13:26:07;0.60;;;0.40;;
44456;SDS011;30159;49.316;8.558;2024-03-23T13:28:33;0.57;;;0.30;;
44456;SDS011;30159;49.316;8.558;2024-03-23T13:31:00;2.40;;;0.50;;
44456;SDS011;30159;49.316;8.558;2024-03-23T13:33:28;0.57;;;0.40;;
44456;SDS011;30159;49.316;8.558;2024-03-23T13:35:57;0.60;;;0.50;;
44456;SDS011;30159;49.316;8.558;2024-03-23T13:38:23;0.70;;;0.50;;
44456;SDS011;30159;49.316;8.558;2024-03-23T13:40:54;0.60;;;0.40;;
44456;SDS011;30159;49.316;8.558;2024-03-23T13:43:22;1.10;;;0.67;;
44456;SDS011;30159;49.316;8.558;2024-03-23T13:45:54;0.60;;;0.50;;
44456;SDS011;30159;49.316;8.558;2024-03-23T13:48:22;0.80;;;0.57;;
44456;SDS011;30159;49.316;8.558;2024-03-23T13:50:56;1.63;;;0.70;;
44456;SDS011;30159;49.316;8.558;2024-03-23T13:53:22;0.90;;;0.70;;
44456;SDS011;30159;49.316;8.558;2024-03-23T13:55:50;0.90;;;0.70;;
44456;SDS011;30159;49.316;8.558;2024-03-23T13:58:17;0.73;;;0.53;;
44456;SDS011;30159;49.316;8.558;2024-03-23T14:00:43;2.03;;;0.60;;
44456;SDS011;30159;49.316;8.558;2024-03-23T14:03:09;0.50;;;0.40;;
44456;SDS011;30159;49.316;8.558;2024-03-23T14:05:36;0.70;;;0.50;;
44456;SDS011;30159;49.316;8.558;2024-03-23T14:08:03;0.53;;;0.40;;
44456;SDS011;30159;49.316;8.558;2024-03-23T14:10:31;0.70;;;0.70;;
44456;SDS011;30159;49.316;8.558;2024-03-23T14:12:56;0.60;;;0.43;;
44456;SDS011;30159;49.316;8.558;2024-03-23T14:15:26;0.80;;;0.50;;
44456;SDS011;30159;49.316;8.558;2024-03-23T14:17:51;2.10;;;0.53;;
44456;SDS011;30159;49.316;8.558;2024-03-23T14:20:19;0.73;;;0.50;;
44456;SDS011;30159;49.316;8.558;2024-03-23T14:22:45;1.33;;;0.50;;
44456;SDS011;30159;49.316;8.558;2024-03-23T14:25:11;0.73;;;0.63;;
44456;SDS011;30159;49.316;8.558;2024-03-23T14:27:37;1.20;;;0.50;;
44456;SDS011;30159;49.316;8.558;2024-03-23T14:30:04;1.43;;;0.40;;
44456;SDS011;30159;49.316;8.558;2024-03-23T14:32:32;1.20;;;0.50;;
44456;SDS011;30159;49.316;8.558;2024-03-23T14:35:00;0.70;;;0.40;;
44456;SDS011;30159;49.316;8.558;2024-03-23T14:37:25;1.57;;;0.60;;
44456;SDS011;30159;49.316;8.558;2024-03-23T14:39:52;0.70;;;0.50;;
44456;SDS011;30159;49.316;8.558;2024-03-23T14:42:18;1.60;;;0.80;;
44456;SDS011;30159;49.316;8.558;2024-03-23T14:44:45;0.73;;;0.50;;
44456;SDS011;30159;49.316;8.558;2024-03-23T14:47:10;3.43;;;0.70;;
44456;SDS011;30159;49.316;8.558;2024-03-23T14:49:39;3.03;;;0.60;;
44456;SDS011;30159;49.316;8.558;2024-03-23T14:52:05;0.80;;;0.70;;
44456;SDS011;30159;49.316;8.558;2024-03-23T14:54:32;0.77;;;0.50;;
44456;SDS011;30159;49.316;8.558;2024-03-23T14:56:58;0.70;;;0.50;;
44456;SDS011;30159;49.316;8.558;2024-03-23T14:59:24;0.67;;;0.50;;
44456;SDS011;30159;49.316;8.558;2024-03-23T15:01:50;0.70;;;0.70;;
44456;SDS011;30159;49.316;8.558;2024-03-23T15:04:17;0.70;;;0.50;;
44456;SDS011;30159;49.316;8.558;2024-03-23T15:06:44;0.53;;;0.47;;
44456;SDS011;30159;49.316;8.558;2024-03-23T15:09:13;1.33;;;0.40;;
44456;SDS011;30159;49.316;8.558;2024-03-23T15:11:39;0.60;;;0.40;;
44456;SDS011;30159;49.316;8.558;2024-03-23T15:14:05;1.53;;;0.80;;
44456;SDS011;30159;49.316;8.558;2024-03-23T15:16:32;0.80;;;0.70;;
44456;SDS011;30159;49.316;8.558;2024-03-23T15:18:59;0.70;;;0.60;;
44456;SDS011;30159;49.316;8.558;2024-03-23T15:21:25;1.00;;;0.50;;
44456;SDS011;30159;49.316;8.558;2024-03-23T15:23:53;0.80;;;0.70;;
44456;SDS011;30159;49.316;8.558;2024-03-23T15:26:18;0.73;;;0.63;;
44456;SDS011;30159;49.316;8.558;2024-03-23T15:28:47;1.00;;;0.80;;
44456;SDS011;30159;49.316;8.558;2024-03-23T15:31:33;1.20;;;0.80;;
44456;SDS011;30159;49.316;8.558;2024-03-23T15:34:00;0.70;;;0.70;;
44456;SDS011;30159;49.316;8.558;2024-03-23T15:36:26;0.80;;;0.50;;
44456;SDS011;30159;49.316;8.558;2024-03-23T15:38:54;0.80;;;0.50;;
44456;SDS011;30159;49.316;8.558;2024-03-23T15:41:20;0.80;;;0.60;;